createdAt,value
2019-01-13T00:00:01.575Z,14.33
2019-01-13T00:02:30.759Z,13.53
2019-01-13T00:04:59.903Z,12.80
2019-01-13T00:07:28.903Z,10.33
2019-01-13T00:09:57.506Z,11.95
2019-01-13T00:12:26.179Z,11.43
2019-01-13T00:14:54.807Z,10.83
2019-01-13T00:17:25.344Z,10.23
2019-01-13T00:19:54.327Z,9.97
2019-01-13T00:22:23.563Z,9.80
2019-01-13T00:24:52.392Z,10.93
2019-01-13T00:27:21.395Z,11.63
2019-01-13T00:29:50.103Z,10.57
2019-01-13T00:32:18.710Z,11.93
2019-01-13T00:34:47.607Z,13.13
2019-01-13T00:37:16.215Z,12.67
2019-01-13T00:39:44.783Z,12.13
2019-01-13T00:42:13.339Z,13.23
2019-01-13T00:44:41.986Z,13.08
2019-01-13T00:47:10.667Z,11.37
2019-01-13T00:49:39.250Z,10.85
2019-01-13T00:52:07.874Z,11.60
2019-01-13T00:54:36.480Z,12.60
2019-01-13T00:57:05.206Z,10.33
2019-01-13T00:59:33.786Z,11.00
2019-01-13T01:02:02.408Z,11.77
2019-01-13T01:04:31.082Z,11.10
2019-01-13T01:06:59.998Z,10.80
2019-01-13T01:09:28.634Z,12.10
2019-01-13T01:11:57.274Z,12.10
2019-01-13T01:14:25.894Z,11.23
2019-01-13T01:16:54.492Z,10.93
2019-01-13T01:19:23.178Z,10.83
2019-01-13T01:21:51.787Z,12.17
2019-01-13T01:24:20.347Z,11.20
2019-01-13T01:26:50.886Z,10.97
2019-01-13T01:29:19.438Z,10.10
2019-01-13T01:31:48.366Z,9.63
2019-01-13T01:34:16.998Z,9.13
2019-01-13T01:36:45.623Z,9.17
2019-01-13T01:39:14.170Z,8.73
2019-01-13T01:41:42.811Z,8.47
2019-01-13T01:44:11.766Z,9.25
2019-01-13T01:46:40.383Z,10.00
2019-01-13T01:49:09.093Z,8.83
2019-01-13T01:51:37.698Z,9.87
2019-01-13T01:54:06.690Z,8.27
2019-01-13T01:56:35.659Z,9.33
2019-01-13T01:59:04.900Z,9.77
2019-01-13T02:01:33.602Z,9.87
2019-01-13T02:04:02.218Z,9.60
2019-01-13T02:06:30.842Z,9.97
2019-01-13T02:08:59.739Z,9.75
2019-01-13T02:11:28.312Z,9.03
2019-01-13T02:13:56.982Z,9.80
2019-01-13T02:16:25.654Z,9.67
2019-01-13T02:18:54.237Z,9.48
2019-01-13T02:21:22.878Z,9.33
2019-01-13T02:23:51.574Z,8.77
2019-01-13T02:26:21.030Z,9.60
2019-01-13T02:28:49.641Z,8.87
2019-01-13T02:31:18.247Z,8.90
2019-01-13T02:33:47.243Z,9.63
2019-01-13T02:36:15.848Z,9.27
2019-01-13T02:38:44.569Z,7.83
2019-01-13T02:41:13.481Z,9.63
2019-01-13T02:43:42.309Z,9.73
2019-01-13T02:46:11.009Z,9.80
2019-01-13T02:48:39.978Z,9.53
2019-01-13T02:51:08.885Z,10.17
2019-01-13T02:53:37.561Z,9.07
2019-01-13T02:56:06.207Z,10.20
2019-01-13T02:58:35.181Z,10.53
2019-01-13T03:01:04.481Z,11.10
2019-01-13T03:03:33.457Z,10.63
2019-01-13T03:06:02.234Z,8.93
2019-01-13T03:08:31.633Z,8.63
2019-01-13T03:11:00.219Z,9.60
2019-01-13T03:13:28.773Z,9.60
2019-01-13T03:15:57.391Z,9.30
2019-01-13T03:18:26.001Z,8.93
2019-01-13T03:20:55.250Z,9.13
2019-01-13T03:23:23.920Z,8.90
2019-01-13T03:25:52.916Z,8.08
2019-01-13T03:28:21.749Z,9.00
2019-01-13T03:30:50.692Z,8.47
2019-01-13T03:33:20.766Z,8.80
2019-01-13T03:35:49.729Z,8.65
2019-01-13T03:38:18.808Z,8.83
2019-01-13T03:40:47.445Z,9.17
2019-01-13T03:43:16.641Z,9.43
2019-01-13T03:45:45.195Z,9.15
2019-01-13T03:48:14.001Z,9.30
2019-01-13T03:50:42.961Z,8.70
2019-01-13T03:53:11.660Z,8.60
2019-01-13T03:55:40.581Z,9.23
2019-01-13T03:58:09.149Z,9.03
2019-01-13T04:00:37.758Z,9.03
2019-01-13T04:03:06.812Z,9.07
2019-01-13T04:05:35.885Z,8.90
2019-01-13T04:08:05.025Z,10.40
2019-01-13T04:10:33.653Z,9.07
2019-01-13T04:13:03.389Z,9.30
2019-01-13T04:15:45.525Z,9.77
2019-01-13T04:18:14.277Z,9.43
2019-01-13T04:20:42.888Z,8.83
2019-01-13T04:23:11.912Z,8.57
2019-01-13T04:25:40.517Z,9.90
2019-01-13T04:28:09.205Z,9.53
2019-01-13T04:30:38.104Z,9.83
2019-01-13T04:33:07.430Z,9.38
2019-01-13T04:35:36.337Z,8.65
2019-01-13T04:38:04.972Z,9.28
2019-01-13T04:40:33.584Z,8.10
2019-01-13T04:43:02.146Z,8.90
2019-01-13T04:45:30.842Z,8.40
2019-01-13T04:47:59.472Z,8.57
2019-01-13T04:50:28.014Z,8.97
2019-01-13T04:52:56.694Z,7.97
2019-01-13T04:55:25.370Z,7.87
2019-01-13T04:57:54.381Z,7.67
2019-01-13T05:00:23.212Z,7.80
2019-01-13T05:02:51.837Z,7.40
2019-01-13T05:05:20.461Z,7.05
2019-01-13T05:07:49.452Z,7.73
2019-01-13T05:10:19.552Z,7.83
2019-01-13T05:12:48.445Z,7.87
2019-01-13T05:15:18.780Z,8.23
2019-01-13T05:17:48.300Z,7.08
2019-01-13T05:20:18.685Z,7.57
2019-01-13T05:22:47.472Z,6.93
2019-01-13T05:25:16.137Z,7.80
2019-01-13T05:27:44.720Z,7.85
2019-01-13T05:30:15.885Z,8.43
2019-01-13T05:32:44.608Z,7.50
2019-01-13T05:35:13.385Z,8.17
2019-01-13T05:37:42.100Z,7.73
2019-01-13T05:40:12.848Z,6.97
2019-01-13T05:42:41.522Z,6.60
2019-01-13T05:45:11.080Z,7.13
2019-01-13T05:47:39.980Z,6.67
2019-01-13T05:50:10.972Z,7.27
2019-01-13T05:52:39.928Z,6.87
2019-01-13T05:55:08.661Z,7.63
2019-01-13T05:57:37.220Z,7.72
2019-01-13T06:00:07.364Z,8.33
2019-01-13T06:02:36.012Z,8.37
2019-01-13T06:05:05.539Z,8.63
2019-01-13T06:07:34.432Z,8.13
2019-01-13T06:10:03.191Z,8.60
2019-01-13T06:12:31.736Z,8.33
2019-01-13T06:15:00.532Z,7.80
2019-01-13T06:17:30.108Z,7.87
2019-01-13T06:19:59.750Z,14.40
2019-01-13T06:22:28.572Z,13.70
2019-01-13T06:24:57.120Z,10.73
2019-01-13T06:27:25.991Z,8.97
2019-01-13T06:29:54.584Z,8.23
2019-01-13T06:32:23.408Z,8.73
2019-01-13T06:34:52.552Z,9.10
2019-01-13T06:37:21.708Z,9.68
2019-01-13T06:39:50.312Z,10.27
2019-01-13T06:42:19.198Z,9.93
2019-01-13T06:44:48.064Z,10.53
2019-01-13T06:47:16.624Z,10.77
2019-01-13T06:49:45.487Z,9.90
2019-01-13T06:52:14.051Z,10.13
2019-01-13T06:54:43.019Z,9.33
2019-01-13T06:57:11.984Z,9.40
2019-01-13T06:59:40.667Z,10.17
2019-01-13T07:02:09.231Z,9.30
2019-01-13T07:04:37.863Z,10.38
2019-01-13T07:07:06.827Z,9.78
2019-01-13T07:09:35.879Z,11.47
2019-01-13T07:12:04.723Z,10.90
2019-01-13T07:14:33.288Z,10.43
2019-01-13T07:17:02.166Z,9.53
2019-01-13T07:19:30.720Z,10.13
2019-01-13T07:21:59.911Z,10.63
2019-01-13T07:24:28.511Z,10.08
2019-01-13T07:26:57.264Z,7.43
2019-01-13T07:29:25.883Z,10.23
2019-01-13T07:31:54.551Z,9.33
2019-01-13T07:34:23.140Z,11.13
2019-01-13T07:36:51.783Z,10.50
2019-01-13T07:39:20.779Z,10.87
2019-01-13T07:41:49.637Z,13.08
2019-01-13T07:44:18.267Z,13.43
2019-01-13T07:46:46.807Z,11.57
2019-01-13T07:49:15.503Z,11.53
2019-01-13T07:51:44.099Z,10.83
2019-01-13T07:54:13.403Z,9.33
2019-01-13T07:56:42.175Z,10.70
2019-01-13T07:59:10.731Z,9.47
2019-01-13T08:01:39.357Z,8.73
2019-01-13T08:04:07.949Z,8.07
2019-01-13T08:06:36.659Z,6.80
2019-01-13T08:09:08.189Z,7.67
2019-01-13T08:11:37.199Z,8.48
2019-01-13T08:14:05.863Z,7.23
2019-01-13T08:16:34.787Z,8.00
2019-01-13T08:19:03.389Z,9.70
2019-01-13T08:21:32.239Z,8.27
2019-01-13T08:24:00.774Z,8.10
2019-01-13T08:26:29.347Z,8.27
2019-01-13T08:28:57.959Z,9.07
2019-01-13T08:31:26.875Z,12.00
2019-01-13T08:33:55.891Z,9.37
2019-01-13T08:36:24.532Z,8.97
2019-01-13T08:38:53.838Z,8.57
2019-01-13T08:41:22.975Z,8.90
2019-01-13T08:43:51.686Z,7.43
2019-01-13T08:46:21.021Z,7.50
2019-01-13T08:48:49.595Z,8.53
2019-01-13T08:51:18.379Z,8.50
2019-01-13T08:53:47.382Z,8.08
2019-01-13T08:56:16.047Z,9.08
2019-01-13T08:58:44.907Z,10.90
2019-01-13T09:01:13.687Z,9.33
2019-01-13T09:03:42.603Z,9.13
2019-01-13T09:06:11.182Z,8.37
2019-01-13T09:08:39.802Z,9.78
2019-01-13T09:11:08.394Z,8.00
2019-01-13T09:13:37.046Z,8.85
2019-01-13T09:16:05.704Z,10.83
2019-01-13T09:18:34.694Z,11.13
2019-01-13T09:21:03.618Z,10.53
2019-01-13T09:23:32.834Z,14.00
2019-01-13T09:26:01.646Z,9.10
2019-01-13T09:28:31.266Z,12.07
2019-01-13T09:30:59.950Z,14.77
2019-01-13T09:33:28.546Z,12.55
2019-01-13T09:35:57.494Z,14.00
2019-01-13T09:38:26.454Z,10.72
2019-01-13T09:40:55.127Z,9.70
2019-01-13T09:43:23.864Z,10.97
2019-01-13T09:45:52.830Z,11.80
2019-01-13T09:48:22.486Z,12.77
2019-01-13T09:50:51.510Z,13.40
2019-01-13T09:53:20.150Z,12.67
2019-01-13T09:55:48.774Z,10.05
2019-01-13T09:58:17.402Z,17.60
2019-01-13T10:00:46.110Z,14.87
2019-01-13T10:03:14.810Z,11.78
2019-01-13T10:05:43.602Z,15.60
2019-01-13T10:08:12.470Z,9.15
2019-01-13T10:10:41.190Z,21.53
2019-01-13T10:13:09.998Z,13.60
2019-01-13T10:15:38.794Z,10.63
2019-01-13T10:18:07.523Z,16.52
2019-01-13T10:20:36.359Z,19.23
2019-01-13T10:23:05.314Z,10.53
2019-01-13T10:25:34.570Z,15.25
2019-01-13T10:28:03.202Z,16.37
2019-01-13T10:30:32.645Z,16.57
2019-01-13T10:33:01.481Z,13.68
2019-01-13T10:35:30.529Z,13.70
2019-01-13T10:37:59.666Z,9.37
2019-01-13T10:40:30.166Z,15.15
2019-01-13T10:43:00.489Z,17.80
2019-01-13T10:45:29.509Z,15.97
2019-01-13T10:47:58.189Z,12.50
2019-01-13T10:50:29.058Z,11.03
2019-01-13T10:53:00.008Z,10.20
2019-01-13T10:55:29.346Z,12.67
2019-01-13T10:57:58.053Z,11.97
2019-01-13T11:00:29.278Z,8.45
2019-01-13T11:03:01.985Z,10.30
2019-01-13T11:05:26.790Z,8.33
2019-01-13T11:07:56.369Z,9.73
2019-01-13T11:10:25.181Z,7.85
2019-01-13T11:12:54.012Z,10.00
2019-01-13T11:15:22.821Z,10.65
2019-01-13T11:17:51.723Z,13.78
2019-01-13T11:20:23.183Z,13.90
2019-01-13T11:22:52.703Z,11.00
2019-01-13T11:25:21.440Z,8.20
2019-01-13T11:27:50.859Z,9.47
2019-01-13T11:30:21.187Z,8.27
2019-01-13T11:32:49.851Z,9.70
2019-01-13T11:35:18.669Z,9.40
2019-01-13T11:37:47.848Z,8.53
2019-01-13T11:40:19.303Z,10.93
2019-01-13T11:42:47.832Z,13.50
2019-01-13T11:45:16.595Z,11.03
2019-01-13T11:47:45.316Z,8.55
2019-01-13T11:50:16.431Z,9.30
2019-01-13T11:52:45.119Z,11.37
2019-01-13T11:55:15.151Z,13.05
2019-01-13T11:57:43.813Z,13.63
2019-01-13T12:00:18.699Z,13.90
2019-01-13T12:02:47.651Z,10.98
2019-01-13T12:05:16.619Z,11.73
2019-01-13T12:07:45.413Z,10.70
2019-01-13T12:10:15.585Z,11.75
2019-01-13T12:12:44.231Z,11.60
2019-01-13T12:15:14.099Z,12.73
2019-01-13T12:17:42.651Z,8.70
2019-01-13T12:20:13.827Z,8.13
2019-01-13T12:22:43.675Z,5.67
2019-01-13T12:25:13.788Z,9.00
2019-01-13T12:27:42.593Z,12.78
2019-01-13T12:30:15.940Z,10.95
2019-01-13T12:32:44.859Z,10.55
2019-01-13T12:35:14.183Z,8.30
2019-01-13T12:37:42.735Z,5.05
2019-01-13T12:40:13.419Z,8.13
2019-01-13T12:42:42.794Z,9.20
2019-01-13T12:45:12.362Z,11.37
2019-01-13T12:47:40.968Z,9.90
2019-01-13T12:50:12.660Z,12.33
2019-01-13T12:52:41.774Z,10.58
2019-01-13T12:55:10.383Z,7.77
2019-01-13T12:57:39.205Z,9.47
2019-01-13T13:00:09.487Z,8.15
2019-01-13T13:02:38.587Z,9.55
2019-01-13T13:05:08.208Z,9.68
2019-01-13T13:07:36.742Z,10.25
2019-01-13T13:10:09.423Z,10.72
2019-01-13T13:12:44.054Z,8.45
2019-01-13T13:15:12.676Z,11.07
2019-01-13T13:17:50.289Z,10.43
2019-01-13T13:20:18.950Z,9.00
2019-01-13T13:22:47.490Z,9.98
2019-01-13T13:25:16.022Z,9.80
2019-01-13T13:27:46.709Z,9.97
2019-01-13T13:30:18.690Z,9.75
2019-01-13T13:32:47.329Z,9.50
2019-01-13T13:35:17.822Z,12.37
2019-01-13T13:37:46.431Z,11.10
2019-01-13T13:40:17.193Z,8.43
2019-01-13T13:42:45.874Z,10.90
2019-01-13T13:45:14.414Z,9.05
2019-01-13T13:47:43.026Z,13.13
2019-01-13T13:50:13.893Z,11.87
2019-01-13T13:52:42.518Z,11.05
2019-01-13T13:55:11.306Z,8.45
2019-01-13T13:57:39.897Z,8.85
2019-01-13T14:00:20.110Z,9.00
2019-01-13T14:02:48.807Z,7.70
2019-01-13T14:05:17.565Z,8.60
2019-01-13T14:07:46.210Z,9.67
2019-01-13T14:10:24.685Z,8.37
2019-01-13T14:12:53.300Z,8.33
2019-01-13T14:15:22.231Z,10.75
2019-01-13T14:17:50.927Z,13.75
2019-01-13T14:20:19.913Z,16.30
2019-01-13T14:22:48.439Z,12.47
2019-01-13T14:25:17.333Z,12.35
2019-01-13T14:27:46.702Z,9.38
2019-01-13T14:30:17.786Z,10.15
2019-01-13T14:32:46.379Z,9.20
2019-01-13T14:35:14.898Z,9.30
2019-01-13T14:37:43.883Z,11.60
2019-01-13T14:40:15.321Z,11.85
2019-01-13T14:42:44.089Z,12.98
2019-01-13T14:45:15.107Z,9.70
2019-01-13T14:47:43.880Z,10.00
2019-01-13T14:50:16.039Z,9.60
2019-01-13T14:52:44.954Z,10.50
2019-01-13T14:55:14.434Z,8.53
2019-01-13T14:57:43.406Z,9.23
2019-01-13T15:00:16.397Z,9.60
2019-01-13T15:02:45.281Z,9.37
2019-01-13T15:05:14.153Z,9.87
2019-01-13T15:07:42.808Z,10.60
2019-01-13T15:10:11.894Z,10.47
2019-01-13T15:12:40.934Z,8.63
2019-01-13T15:15:10.364Z,9.23
2019-01-13T15:17:38.998Z,11.20
2019-01-13T15:20:10.603Z,7.87
2019-01-13T15:22:39.686Z,10.43
2019-01-13T15:25:10.328Z,10.78
2019-01-13T15:27:39.014Z,10.95
2019-01-13T15:30:12.928Z,8.50
2019-01-13T15:32:42.208Z,8.85
2019-01-13T15:35:11.136Z,10.97
2019-01-13T15:37:39.832Z,11.03
2019-01-13T15:40:10.316Z,10.72
2019-01-13T15:42:38.910Z,11.25
2019-01-13T15:45:08.236Z,11.10
2019-01-13T15:47:36.773Z,11.22
2019-01-13T15:50:07.693Z,9.80
2019-01-13T15:52:36.261Z,10.70
2019-01-13T15:55:05.518Z,9.63
2019-01-13T15:57:34.084Z,7.17
2019-01-13T16:00:03.721Z,10.07
2019-01-13T16:02:32.400Z,9.05
2019-01-13T16:05:01.133Z,8.17
2019-01-13T16:07:29.689Z,10.27
2019-01-13T16:09:58.517Z,9.25
2019-01-13T16:12:27.388Z,10.48
2019-01-13T16:14:56.024Z,11.55
2019-01-13T16:17:24.553Z,8.60
2019-01-13T16:19:53.369Z,9.75
2019-01-13T16:22:21.972Z,9.53
2019-01-13T16:24:50.592Z,8.95
2019-01-13T16:27:19.576Z,10.03
2019-01-13T16:29:48.128Z,8.97
2019-01-13T16:32:16.732Z,9.30
2019-01-13T16:34:45.496Z,8.00
2019-01-13T16:37:14.324Z,9.03
2019-01-13T16:39:43.123Z,7.70
2019-01-13T16:42:11.683Z,8.05
2019-01-13T16:44:40.627Z,9.63
2019-01-13T16:47:09.200Z,9.40
2019-01-13T16:49:37.874Z,12.28
2019-01-13T16:52:06.485Z,10.20
2019-01-13T16:54:35.099Z,10.35
2019-01-13T16:57:03.732Z,10.03
2019-01-13T16:59:32.879Z,8.53
2019-01-13T17:02:01.462Z,9.17
2019-01-13T17:04:30.207Z,9.40
2019-01-13T17:06:58.768Z,7.12
2019-01-13T17:09:27.311Z,9.10
2019-01-13T17:11:55.999Z,7.00
2019-01-13T17:14:24.855Z,9.33
2019-01-13T17:16:53.530Z,7.95
2019-01-13T17:19:22.136Z,7.97
2019-01-13T17:21:50.944Z,8.08
2019-01-13T17:24:19.544Z,5.63
2019-01-13T17:26:48.260Z,7.58
2019-01-13T17:29:17.115Z,7.90
2019-01-13T17:31:45.839Z,6.85
2019-01-13T17:34:14.834Z,7.90
2019-01-13T17:36:43.576Z,8.23
2019-01-13T17:39:13.468Z,7.33
2019-01-13T17:41:40.805Z,6.57
2019-01-13T17:44:11.496Z,7.50
2019-01-13T17:46:40.459Z,6.63
2019-01-13T17:49:09.027Z,6.00
2019-01-13T17:51:37.628Z,6.60
2019-01-13T17:54:06.271Z,6.30
2019-01-13T17:56:34.851Z,7.27
2019-01-13T17:59:03.467Z,7.40
2019-01-13T18:01:35.603Z,5.70
2019-01-13T18:04:04.799Z,5.87
2019-01-13T18:06:33.463Z,6.70
2019-01-13T18:09:02.358Z,7.47
2019-01-13T18:11:31.503Z,7.03
2019-01-13T18:14:00.382Z,6.90
2019-01-13T18:16:28.938Z,6.60
2019-01-13T18:18:57.859Z,6.97
2019-01-13T18:21:27.868Z,6.90
2019-01-13T18:23:56.443Z,6.30
2019-01-13T18:26:25.080Z,7.70
2019-01-13T18:28:53.900Z,6.50
2019-01-13T18:31:22.648Z,6.25
2019-01-13T18:33:51.556Z,7.60
2019-01-13T18:36:20.447Z,5.83
2019-01-13T18:38:49.258Z,6.92
2019-01-13T18:41:18.363Z,7.17
2019-01-13T18:43:47.016Z,5.57
2019-01-13T18:46:15.953Z,7.75
2019-01-13T18:48:44.850Z,6.33
2019-01-13T18:51:13.616Z,6.33
2019-01-13T18:53:42.204Z,5.77
2019-01-13T18:56:10.875Z,6.63
2019-01-13T18:58:39.620Z,5.83
2019-01-13T19:01:08.680Z,6.45
2019-01-13T19:03:37.475Z,5.77
2019-01-13T19:06:06.229Z,5.90
2019-01-13T19:08:36.445Z,6.43
2019-01-13T19:11:18.680Z,5.95
2019-01-13T19:14:52.828Z,5.70
2019-01-13T19:17:23.829Z,6.50
2019-01-13T19:20:12.225Z,6.10
2019-01-13T19:22:43.203Z,6.35
2019-01-13T19:25:19.238Z,6.90
2019-01-13T19:27:47.763Z,7.37
2019-01-13T19:30:16.407Z,6.72
2019-01-13T19:32:45.258Z,7.58
2019-01-13T19:35:14.459Z,7.40
2019-01-13T19:37:43.006Z,7.75
2019-01-13T19:40:13.266Z,5.50
2019-01-13T19:42:41.862Z,6.92
2019-01-13T19:45:11.719Z,5.53
2019-01-13T19:47:40.462Z,6.63
2019-01-13T19:50:11.684Z,6.05
2019-01-13T19:52:40.750Z,6.43
2019-01-13T19:55:29.431Z,6.70
2019-01-13T19:57:58.142Z,6.50
2019-01-13T20:00:33.862Z,6.65
2019-01-13T20:03:02.526Z,6.12
2019-01-13T20:05:31.013Z,7.20
2019-01-13T20:07:59.739Z,7.70
2019-01-13T20:10:28.695Z,9.40
2019-01-13T20:12:57.325Z,8.60
2019-01-13T20:15:26.121Z,10.37
2019-01-13T20:17:54.719Z,9.85
2019-01-13T20:20:23.604Z,9.50
2019-01-13T20:22:52.254Z,10.20
2019-01-13T20:25:21.153Z,9.37
2019-01-13T20:27:49.753Z,8.43
2019-01-13T20:30:20.493Z,6.78
2019-01-13T20:32:49.337Z,6.35
2019-01-13T20:35:19.333Z,6.83
2019-01-13T20:37:47.136Z,6.45
2019-01-13T20:40:15.846Z,6.70
2019-01-13T20:42:44.712Z,7.07
2019-01-13T20:45:16.446Z,7.28
2019-01-13T20:47:45.209Z,7.73
2019-01-13T20:50:14.405Z,7.97
2019-01-13T20:52:43.503Z,7.17
2019-01-13T20:55:12.949Z,7.83
2019-01-13T20:57:43.105Z,7.90
2019-01-13T21:00:16.225Z,7.65
2019-01-13T21:02:46.375Z,7.80
2019-01-13T21:05:15.171Z,8.38
2019-01-13T21:07:44.479Z,9.20
2019-01-13T21:10:13.611Z,8.43
2019-01-13T21:14:11.620Z,9.13
2019-01-13T21:16:40.867Z,7.67
2019-01-13T21:19:09.632Z,8.03
2019-01-13T21:21:38.473Z,8.37
2019-01-13T21:24:07.100Z,8.20
2019-01-13T21:26:35.761Z,7.70
2019-01-13T21:29:04.782Z,8.13
2019-01-13T21:31:33.674Z,7.92
2019-01-13T21:34:02.223Z,9.33
2019-01-13T21:36:31.231Z,9.63
2019-01-13T21:38:59.914Z,10.30
2019-01-13T21:41:28.809Z,10.50
2019-01-13T21:43:57.651Z,9.58
2019-01-13T21:46:26.376Z,10.28
2019-01-13T21:48:56.538Z,10.80
2019-01-13T21:51:25.386Z,10.88
2019-01-13T21:53:54.739Z,10.80
2019-01-13T21:56:23.594Z,9.55
2019-01-13T21:58:52.494Z,9.30
2019-01-13T22:01:21.372Z,8.23
2019-01-13T22:03:50.132Z,9.33
2019-01-13T22:06:18.945Z,9.13
2019-01-13T22:08:47.700Z,8.78
2019-01-13T22:11:16.540Z,9.50
2019-01-13T22:13:45.656Z,9.67
2019-01-13T22:16:14.436Z,7.17
2019-01-13T22:18:43.204Z,7.13
2019-01-13T22:21:12.000Z,6.80
2019-01-13T22:23:40.736Z,6.62
2019-01-13T22:26:09.432Z,5.03
2019-01-13T22:28:38.188Z,6.47
2019-01-13T22:31:09.800Z,5.80
2019-01-13T22:33:39.012Z,5.43
2019-01-13T22:36:07.801Z,4.87
2019-01-13T22:38:36.571Z,4.92
2019-01-13T22:41:05.339Z,5.17
2019-01-13T22:43:34.152Z,4.67
2019-01-13T22:46:02.955Z,4.70
2019-01-13T22:48:33.745Z,4.45
2019-01-13T23:03:58.444Z,4.08
2019-01-13T23:06:27.715Z,3.83
2019-01-13T23:08:58.012Z,4.05
2019-01-13T23:11:27.359Z,3.87
2019-01-13T23:13:56.427Z,3.17
2019-01-13T23:16:25.295Z,3.20
2019-01-13T23:18:54.187Z,3.17
2019-01-13T23:21:22.931Z,3.33
2019-01-13T23:23:51.719Z,3.60
2019-01-13T23:26:20.463Z,3.20
2019-01-13T23:28:49.591Z,3.40
2019-01-13T23:31:18.319Z,3.17
2019-01-13T23:33:47.135Z,3.97
2019-01-13T23:36:15.946Z,4.00
2019-01-13T23:38:44.707Z,4.07
2019-01-13T23:41:13.755Z,3.47
2019-01-13T23:43:42.547Z,3.47
2019-01-13T23:46:11.283Z,4.03
2019-01-13T23:48:40.039Z,3.20
2019-01-13T23:51:09.179Z,4.00
2019-01-13T23:53:37.989Z,3.73
2019-01-13T23:56:06.747Z,3.30
2019-01-13T23:58:35.538Z,3.20
